af1461 (af1461) wrote,
af1461
af1461

Нештатная посадка Boeing-777 в Хитроу

     Сегодня около 12:50 GMT в лондонском аэропорту Хитроу произошла авария самолета Boeing-777-200ER а/к British Airways, выполнвшего рейс BA-38 из Пекина. Самолет приземлился в 250 метрах до полосы на грунт. При этом основные стойки шасси сломались, повредив крыло, самолет изменил траекторию движения и остановился под углом к толосе около ее торца. Пострадало несколько человек, погибших нет.


Снимок с сайта BBC, там же более полная информация. Обратите внимание на крыло.


Еще один материал с сайта BBC.


     Надо отметить что это второй случай серьезного повреждения Boeing-777, и в обоих "повезло" бритишам - другой аналогичный борт пострадал при пожаре во время заправки в Денвере в 2001 г.

P.S. А птичку жалко - поломали ни за что ни про что...

UPD: EGLL 171250Z 20013KT 9999 BKN008 10/08 Q0996 BECMG 24018G28KT SCT012 BKN020
Subscribe
  • Post a new comment

    Error

    Anonymous comments are disabled in this journal

    default userpic

    Your reply will be screened

    Your IP address will be recorded 

  • 35 comments